OPA Logo
 
ASOS:
At:2021.11.28 2355 UTC
Wind:240° @ 11KT
Viz: 10 mile(s)
Sky: clear
Temp: 64 F (18 C)
DewP: 33 F (1 C)
RH: 31%
Baro: 30.21 in.
ob: KBDN 282355Z AUTO 24011KT 10SM CLR 18/01 A3021 RMK AO2

ASOS: KRDM
At:2021.11.28 2256 UTC
Wind:360° @ 5KT
Viz: 10 mile(s)
Sky: clear
Temp: 64.0 F (17.8 C)
DewP: 37.9 F (3.3 C)
RH: 37%
Baro: 30.17 in.
ob: KRDM 282256Z 36005KT 10SM CLR 18/03 A3017 RMK AO2 SLP202 T01780033
Apache-SSL Logo

Valid HTML 4.01!

Central Oregon OPA Chapter

Upcoming Fly Outs


2004

June

12 Bend, OR - Flying Festival - Bend Airport

Other Fly-Out pages

Oregon Pilots Association Events Calendar

Washington Pilots Association Events

Past Fly Outs


Caldwell, ID and the Kitfox factory February 2002

XMAS Party 2001

Pasco, WA November 2001

Bend Airport Open House 2001

Flyout May 2001 to Flying M Ranch

Flyout April 2001 to Tillamook Air Museum


Web page by: gem@rellim.com